Time;durP1;ratioP1;P1;durP2;ratioP2;P2;SDS_P1;SDS_P2;PMS_P1;PMS_P2;Temp;Humidity;BMP_temperature;BMP_pressure;BME280_temperature;BME280_humidity;BME280_pressure;Samples;Min_cycle;Max_cycle;Signal;HPM_P1;HPM_P2
2021/11/13 00:01:37;;;;;;;25.75;10.93;;;;;;;2.09;76.00;99962.22;4786846;30;20055;-66
2021/11/13 00:04:10;;;;;;;20.25;10.82;;;;;;;2.14;75.50;99973.31;4787081;30;20073;-67
2021/11/13 00:06:40;;;;;;;22.10;10.48;;;;;;;2.10;75.31;99963.09;4786894;30;20191;-66
2021/11/13 00:09:14;;;;;;;22.02;10.82;;;;;;;2.08;75.25;99960.53;4786915;30;20067;-67
2021/11/13 00:11:47;;;;;;;24.67;10.00;;;;;;;2.10;75.48;99958.91;4786789;30;20048;-66
2021/11/13 00:14:21;;;;;;;24.45;10.73;;;;;;;2.13;75.97;99959.03;4801129;29;20405;-66
2021/11/13 00:16:55;;;;;;;25.30;10.63;;;;;;;2.24;75.56;99960.28;4825015;29;20066;-66
2021/11/13 00:19:27;;;;;;;26.10;11.43;;;;;;;2.37;75.14;99967.47;4824997;29;20149;-66
2021/11/13 00:22:02;;;;;;;25.67;11.32;;;;;;;2.24;75.93;99967.81;4824809;29;20538;-66
2021/11/13 00:24:36;;;;;;;22.63;10.32;;;;;;;2.22;76.25;99971.94;4825374;29;20111;-66
2021/11/13 00:27:10;;;;;;;25.33;11.00;;;;;;;2.27;76.06;99967.94;4806617;29;20059;-66
2021/11/13 00:29:42;;;;;;;20.35;9.90;;;;;;;2.32;75.63;99961.41;4805426;29;20051;-67
2021/11/13 00:32:15;;;;;;;27.67;11.70;;;;;;;2.14;76.13;99950.66;4806504;29;20138;-66
2021/11/13 00:34:50;;;;;;;25.10;10.82;;;;;;;2.07;75.16;99958.78;4805595;29;20493;-66
2021/11/13 00:37:23;;;;;;;24.35;11.38;;;;;;;1.83;75.37;99957.88;4806508;29;20505;-66
2021/11/13 00:39:58;;;;;;;22.05;9.90;;;;;;;1.87;76.12;99954.69;4806250;29;20051;-66
2021/11/13 00:42:27;;;;;;;25.67;10.65;;;;;;;1.73;76.21;99965.84;4806391;29;20063;-66
2021/11/13 00:45:00;;;;;;;22.08;11.30;;;;;;;1.60;76.16;99968.72;4806428;29;20058;-66
2021/11/13 00:47:33;;;;;;;18.75;8.80;;;;;;;1.53;76.38;99962.59;4806428;29;20506;-66
2021/11/13 00:50:10;;;;;;;23.02;11.07;;;;;;;1.44;76.11;99966.41;4806973;29;20447;-66
2021/11/13 00:52:43;;;;;;;19.63;9.82;;;;;;;1.47;76.12;99961.47;4806687;29;20101;-66
2021/11/13 00:55:20;;;;;;;20.63;10.30;;;;;;;1.34;76.04;99971.03;4806420;29;20061;-66
2021/11/13 00:57:52;;;;;;;19.42;9.23;;;;;;;1.44;76.08;99961.38;4806352;29;20104;-66
2021/11/13 01:00:22;;;;;;;19.15;10.32;;;;;;;1.45;76.34;99965.59;4806633;29;20598;-66
2021/11/13 01:02:54;;;;;;;19.80;9.50;;;;;;;1.21;76.09;99958.78;4806201;29;20138;-66
2021/11/13 01:05:24;;;;;;;23.85;9.85;;;;;;;1.14;75.95;99955.94;4806559;29;20138;-66
2021/11/13 01:08:30;;;;;;;24.20;9.93;;;;;;;1.35;76.36;99951.78;4957462;24;20043;-68
2021/11/13 01:11:03;;;;;;;23.75;9.77;;;;;;;1.48;76.23;99943.94;4823658;29;20111;-63
2021/11/13 01:13:35;;;;;;;22.08;8.80;;;;;;;1.49;76.67;99939.78;4824397;29;20054;-64
2021/11/13 01:16:05;;;;;;;19.33;8.50;;;;;;;1.28;76.91;99945.66;4824432;29;20146;-64
2021/11/13 01:18:39;;;;;;;24.48;11.23;;;;;;;1.28;76.61;99950.69;4824959;29;20054;-64
2021/11/13 01:21:09;;;;;;;21.13;9.68;;;;;;;1.38;76.52;99943.50;4824195;29;20054;-63
2021/11/13 01:23:42;;;;;;;23.45;9.65;;;;;;;1.15;76.50;99943.44;4824340;29;20107;-63
2021/11/13 01:26:15;;;;;;;24.73;10.98;;;;;;;1.17;76.63;99935.97;4824357;29;20059;-64
2021/11/13 01:28:45;;;;;;;23.55;10.27;;;;;;;1.28;76.70;99940.63;4824323;29;20058;-64
2021/11/13 01:31:15;;;;;;;27.33;10.80;;;;;;;1.19;76.69;99932.72;4824115;29;20498;-63
2021/11/13 01:33:45;;;;;;;24.42;11.23;;;;;;;1.15;76.39;99907.41;4824179;29;20064;-63
2021/11/13 01:36:17;;;;;;;22.65;10.35;;;;;;;1.30;76.76;99933.16;4824186;29;20058;-64
2021/11/13 01:38:46;;;;;;;23.48;11.13;;;;;;;1.32;75.81;99932.41;4824172;29;20449;-64
2021/11/13 01:41:20;;;;;;;20.05;10.27;;;;;;;1.39;75.91;99915.06;4824051;29;20497;-64
2021/11/13 01:43:50;;;;;;;25.92;9.88;;;;;;;1.43;75.58;99919.41;4824435;29;20122;-63
2021/11/13 01:46:23;;;;;;;20.80;10.43;;;;;;;1.35;76.11;99922.47;4824100;29;20050;-63
2021/11/13 01:48:52;;;;;;;23.60;10.45;;;;;;;1.38;76.04;99913.34;4824054;29;20062;-63
2021/11/13 01:51:26;;;;;;;;;;;;;;;1.38;75.44;99913.34;4825614;29;20153;-63
2021/11/13 01:54:00;;;;;;;19.40;9.05;;;;;;;1.22;75.46;99920.25;4827076;29;20031;-64
2021/11/13 01:56:34;;;;;;;23.70;10.13;;;;;;;1.07;75.81;99914.66;4827084;29;20064;-64
2021/11/13 01:59:05;;;;;;;21.85;8.88;;;;;;;1.10;76.20;99909.75;4827012;29;20137;-64
2021/11/13 02:01:39;;;;;;;23.98;10.70;;;;;;;1.07;76.51;99918.81;4826942;29;20125;-64
2021/11/13 02:04:11;;;;;;;22.85;9.68;;;;;;;1.17;75.71;99909.19;4826949;29;20133;-64
2021/11/13 02:06:43;;;;;;;24.27;10.48;;;;;;;1.18;75.97;99910.91;4827234;29;20107;-64
2021/11/13 02:09:13;;;;;;;22.08;9.13;;;;;;;1.18;75.93;99908.38;4826119;29;20058;-64
2021/11/13 02:11:47;;;;;;;18.95;8.98;;;;;;;1.15;76.11;99905.75;4826882;29;20054;-64
2021/11/13 02:14:16;;;;;;;20.67;9.52;;;;;;;1.16;75.84;99899.06;4826785;29;20063;-63
2021/11/13 02:16:49;;;;;;;22.40;10.48;;;;;;;1.30;75.80;99898.81;4826772;29;20050;-63
2021/11/13 02:19:19;;;;;;;26.20;10.60;;;;;;;1.35;75.80;99892.31;4826779;29;20050;-63
2021/11/13 02:21:53;;;;;;;22.77;10.27;;;;;;;1.41;76.41;99878.28;4826636;29;20050;-63
2021/11/13 02:24:22;;;;;;;28.85;11.55;;;;;;;1.51;75.73;99882.84;4826595;29;20132;-63
2021/11/13 02:26:55;;;;;;;25.30;10.68;;;;;;;1.51;76.41;99877.81;4826584;29;20097;-63
2021/11/13 02:29:25;;;;;;;28.33;12.10;;;;;;;1.58;76.56;99884.81;4826556;29;20054;-63
2021/11/13 02:31:55;;;;;;;;;;;;;;;1.64;75.78;99869.94;4826951;29;20081;-63
2021/11/13 02:34:24;;;;;;;;;;;;;;;1.59;75.31;99876.44;4825682;29;19925;-63
2021/11/13 02:36:57;;;;;;;;;;;;;;;1.51;75.31;99877.81;4827405;29;19932;-63
2021/11/13 02:39:30;;;;;;;24.63;10.60;;;;;;;1.43;75.88;99871.63;4826465;29;19925;-63
2021/11/13 02:42:03;;;;;;;27.73;12.45;;;;;;;1.39;75.39;99867.31;4826337;29;20043;-63
2021/11/13 02:44:33;;;;;;;33.20;14.07;;;;;;;1.40;75.64;99864.84;4826320;29;20134;-63
2021/11/13 02:47:05;;;;;;;31.52;14.15;;;;;;;1.31;75.72;99865.34;4826638;29;20154;-64
2021/11/13 02:49:36;;;;;;;31.58;15.43;;;;;;;1.29;76.44;99859.41;4826289;29;20133;-63
2021/11/13 02:52:10;;;;;;;31.38;13.60;;;;;;;1.40;76.24;99857.28;4826258;29;20501;-63
2021/11/13 02:54:54;;;;;;;34.35;14.27;;;;;;;1.18;76.41;99865.66;4826169;29;20052;-64
2021/11/13 02:57:23;;;;;;;35.78;14.32;;;;;;;1.20;77.11;99848.97;4824298;29;20088;-64
2021/11/13 02:59:55;;;;;;;33.85;13.90;;;;;;;1.35;77.52;99857.13;4824335;29;20186;-64
2021/11/13 03:02:27;;;;;;;28.33;12.70;;;;;;;1.38;76.85;99853.00;4824185;29;20042;-64
2021/11/13 03:04:57;;;;;;;28.25;12.45;;;;;;;1.43;77.20;99849.88;4824039;29;20145;-63
2021/11/13 03:07:30;;;;;;;27.15;12.55;;;;;;;1.45;77.22;99842.38;4824486;29;20184;-64
2021/11/13 03:10:05;;;;;;;26.17;11.98;;;;;;;1.46;77.07;99844.09;4823235;29;20062;-64
2021/11/13 03:12:39;;;;;;;27.05;13.15;;;;;;;1.27;77.72;99833.34;4824113;29;20066;-64
2021/11/13 03:15:13;;;;;;;23.88;11.10;;;;;;;1.20;77.56;99850.66;4823897;29;20126;-63
2021/11/13 03:17:45;;;;;;;26.77;12.00;;;;;;;1.12;77.32;99847.84;4824025;29;20080;-63
2021/11/13 03:20:19;;;;;;;25.10;12.68;;;;;;;1.07;77.29;99844.28;4823895;29;20074;-63
2021/11/13 03:22:54;;;;;;;28.75;12.77;;;;;;;0.99;77.64;99829.69;4823841;29;20061;-62
2021/11/13 03:25:31;;;;;;;28.55;12.57;;;;;;;0.97;77.48;99834.66;4823738;29;20054;-63
2021/11/13 03:28:07;;;;;;;23.65;12.27;;;;;;;0.96;77.71;99839.66;4824390;29;20083;-63
2021/11/13 03:30:41;;;;;;;30.77;13.07;;;;;;;0.88;78.00;99825.91;4825973;29;20058;-63
2021/11/13 03:33:13;;;;;;;26.25;12.15;;;;;;;0.93;77.55;99840.38;4825683;29;20054;-63
2021/11/13 03:35:43;;;;;;;30.25;13.43;;;;;;;0.99;77.86;99822.16;4825855;29;20445;-63
2021/11/13 03:38:16;;;;;;;31.15;14.27;;;;;;;1.01;78.19;99833.16;4825533;29;20049;-63
2021/11/13 03:40:50;;;;;;;23.58;12.25;;;;;;;1.01;77.82;99826.44;4825533;29;20111;-63
2021/11/13 03:43:23;;;;;;;30.52;13.90;;;;;;;0.84;77.52;99824.91;4825455;29;20073;-63
2021/11/13 03:45:55;;;;;;;28.45;13.73;;;;;;;0.78;78.04;99827.19;4825717;29;20401;-63
2021/11/13 03:49:00;;;;;;;30.95;13.43;;;;;;;0.65;77.72;99815.78;4195542;23;20057;-67
2021/11/13 03:51:33;;;;;;;30.60;13.40;;;;;;;0.71;77.79;99820.22;4844077;29;20054;-68
2021/11/13 03:54:07;;;;;;;30.92;13.82;;;;;;;0.80;77.90;99813.03;4843480;29;20061;-66
2021/11/13 03:56:43;;;;;;;29.10;13.40;;;;;;;0.64;77.78;99816.63;4843477;29;20057;-67
2021/11/13 03:59:15;;;;;;;28.40;12.45;;;;;;;0.60;78.48;99818.94;4843400;29;20136;-68
2021/11/13 04:01:47;;;;;;;31.98;13.25;;;;;;;0.73;78.45;99831.19;4843612;29;20408;-67
2021/11/13 04:04:20;;;;;;;28.25;12.02;;;;;;;0.66;78.87;99819.19;4843214;29;20046;-66
2021/11/13 04:06:53;;;;;;;29.25;13.07;;;;;;;0.61;78.44;99818.13;4843211;29;20053;-66
2021/11/13 04:09:26;;;;;;;26.80;11.57;;;;;;;0.58;79.02;99818.00;4843225;29;20150;-67
2021/11/13 04:12:05;;;;;;;23.88;12.23;;;;;;;0.70;79.29;99815.97;4843201;29;20093;-66
2021/11/13 04:14:39;;;;;;;28.25;12.18;;;;;;;0.76;79.12;99810.34;4842655;29;20114;-67
2021/11/13 04:17:12;;;;;;;25.23;12.45;;;;;;;0.68;79.52;99797.50;4843104;29;20054;-67
2021/11/13 04:19:44;;;;;;;26.67;12.25;;;;;;;0.87;79.64;99819.16;4843150;29;20058;-67
2021/11/13 04:22:17;;;;;;;27.67;12.18;;;;;;;0.78;78.98;99821.31;4843068;29;20049;-67
2021/11/13 04:24:51;;;;;;;22.90;11.88;;;;;;;0.87;79.50;99822.53;4842953;29;20054;-66
2021/11/13 04:27:23;;;;;;;31.05;12.10;;;;;;;0.72;79.08;99834.47;4843247;29;20081;-68
2021/11/13 04:29:55;;;;;;;24.20;11.90;;;;;;;0.49;79.42;99825.16;4843038;29;20504;-67
2021/11/13 04:32:29;;;;;;;27.52;12.90;;;;;;;0.32;79.37;99801.88;4843204;29;20487;-67
2021/11/13 04:35:16;;;;;;;30.15;13.73;;;;;;;0.66;79.45;99826.72;4843240;29;20129;-66
2021/11/13 04:37:48;;;;;;;23.92;11.63;;;;;;;0.66;79.80;99829.22;4843131;29;20106;-66
2021/11/13 04:40:26;;;;;;;23.55;10.52;;;;;;;0.77;79.61;99827.97;4843189;29;20592;-67
2021/11/13 04:42:58;;;;;;;20.88;10.18;;;;;;;0.52;79.75;99802.69;4843095;29;20053;-66
2021/11/13 04:45:30;;;;;;;26.40;10.93;;;;;;;0.45;79.73;99833.38;4842915;29;20054;-67
2021/11/13 04:48:00;;;;;;;31.35;12.43;;;;;;;0.27;80.03;99835.09;4842532;29;20140;-66
2021/11/13 04:50:33;;;;;;;29.38;12.73;;;;;;;0.36;80.12;99833.00;4842793;29;20133;-66
2021/11/13 04:53:06;;;;;;;29.98;11.10;;;;;;;0.45;80.22;99843.41;4842777;29;20049;-67
2021/11/13 04:55:41;;;;;;;27.73;12.15;;;;;;;0.46;80.50;99847.63;4842756;29;20050;-66
2021/11/13 04:58:10;;;;;;;28.73;12.88;;;;;;;0.48;80.88;99843.53;4842670;29;20061;-67
2021/11/13 05:00:39;;;;;;;33.65;11.77;;;;;;;0.51;80.74;99828.59;4842670;29;20568;-67
2021/11/13 05:03:09;;;;;;;24.20;11.63;;;;;;;0.66;80.81;99849.31;4841655;29;20432;-66
2021/11/13 05:05:38;;;;;;;27.42;12.70;;;;;;;0.68;81.09;99850.22;4842639;29;20048;-67
2021/11/13 05:08:08;;;;;;;25.23;9.75;;;;;;;0.76;81.15;99846.38;4842603;29;20113;-66
2021/11/13 05:10:44;;;;;;;25.77;10.88;;;;;;;0.81;80.52;99859.97;4842720;29;20497;-67
2021/11/13 05:13:13;;;;;;;19.35;9.52;;;;;;;0.70;80.75;99850.31;4842926;29;20069;-65
2021/11/13 05:15:43;;;;;;;18.35;8.90;;;;;;;0.65;80.53;99858.47;4842869;29;20538;-67
2021/11/13 05:18:16;;;;;;;23.63;10.43;;;;;;;0.57;81.24;99858.97;4842518;29;20517;-65
2021/11/13 05:20:48;;;;;;;25.60;11.85;;;;;;;0.59;81.07;99860.75;4842551;29;20080;-67
2021/11/13 05:23:20;;;;;;;27.30;11.25;;;;;;;0.49;80.64;99847.75;4842741;29;20561;-67
2021/11/13 05:25:51;;;;;;;29.23;11.60;;;;;;;0.48;80.52;99879.53;4843034;29;20137;-67
2021/11/13 05:28:21;;;;;;;30.77;12.95;;;;;;;0.58;80.48;99861.53;4845957;29;20053;-66
2021/11/13 05:30:50;;;;;;;25.48;11.82;;;;;;;0.56;80.22;99845.56;4845957;29;20114;-66
2021/11/13 05:33:19;;;;;;;24.63;11.75;;;;;;;0.72;80.45;99868.78;4844762;29;20046;-67
2021/11/13 05:35:52;;;;;;;30.50;11.55;;;;;;;0.79;80.28;99876.66;4845857;29;20050;-67
2021/11/13 05:38:21;;;;;;;30.40;11.75;;;;;;;0.85;80.37;99876.88;4846054;29;20579;-66
2021/11/13 05:40:55;;;;;;;36.00;14.20;;;;;;;0.97;80.77;99871.50;4845828;29;20053;-66
2021/11/13 05:43:30;;;;;;;29.52;12.75;;;;;;;1.05;80.08;99876.03;4845664;29;20054;-65
2021/11/13 05:46:00;;;;;;;23.77;12.32;;;;;;;1.20;80.49;99874.13;4846040;29;20072;-67
2021/11/13 05:48:29;;;;;;;;;;;;;;;1.26;80.19;99879.41;4845766;29;20096;-68
2021/11/13 05:51:02;;;;;;;29.38;12.63;;;;;;;1.33;80.68;99863.75;4845857;29;19931;-69
2021/11/13 05:53:32;;;;;;;28.58;13.30;;;;;;;1.50;80.34;99884.50;4845589;29;20094;-66
2021/11/13 05:56:06;;;;;;;28.80;12.57;;;;;;;1.61;81.21;99884.94;4845522;29;20050;-65
2021/11/13 05:58:57;;;;;;;27.75;12.57;;;;;;;1.59;81.61;99876.44;4845327;29;20085;-65
2021/11/13 06:01:30;;;;;;;28.65;12.55;;;;;;;1.72;81.86;99883.66;4845460;29;20050;-65
2021/11/13 06:03:59;;;;;;;;;;;;;;;1.92;81.66;99885.25;4845695;29;20132;-65
2021/11/13 06:06:32;;;;;;;25.50;11.20;;;;;;;2.00;82.00;99886.38;4845370;29;19989;-66
2021/11/13 06:09:01;;;;;;;29.67;12.48;;;;;;;1.93;81.94;99870.22;4845292;29;20093;-65
2021/11/13 06:11:35;;;;;;;28.83;12.45;;;;;;;2.09;81.72;99898.47;4845211;29;20133;-66
2021/11/13 06:14:07;;;;;;;36.05;13.20;;;;;;;2.12;82.19;99886.81;4845160;29;20077;-65
2021/11/13 06:16:36;;;;;;;32.55;14.35;;;;;;;2.15;81.86;99901.19;4845133;29;20053;-65
2021/11/13 06:19:08;;;;;;;27.92;12.38;;;;;;;2.18;82.41;99894.63;4845411;29;20054;-67
2021/11/13 06:21:41;;;;;;;34.13;13.38;;;;;;;2.21;83.08;99901.41;4845055;29;20050;-66
2021/11/13 06:24:16;;;;;;;38.08;14.60;;;;;;;2.28;82.81;99903.34;4845228;29;20069;-67
2021/11/13 06:26:47;;;;;;;34.63;14.23;;;;;;;2.36;83.55;99901.94;4844982;29;20144;-67
2021/11/13 06:29:19;;;;;;;40.67;15.18;;;;;;;2.40;83.17;99914.69;4844917;29;20110;-65
2021/11/13 06:31:51;;;;;;;38.08;15.80;;;;;;;2.44;84.02;99916.53;4844905;29;20054;-65
2021/11/13 06:34:24;;;;;;;42.50;17.02;;;;;;;2.40;84.13;99897.06;4844815;29;20481;-66
2021/11/13 06:36:56;;;;;;;48.33;16.85;;;;;;;2.66;84.05;99924.00;4844423;29;20132;-68
2021/11/13 06:39:29;;;;;;;41.22;15.40;;;;;;;2.75;84.43;99930.16;4844989;29;20102;-65
2021/11/13 06:42:03;;;;;;;48.40;16.67;;;;;;;2.83;84.61;99921.22;4844998;29;20509;-65
2021/11/13 06:44:33;;;;;;;42.72;16.75;;;;;;;2.84;84.72;99922.91;4844931;29;20092;-66
2021/11/13 06:47:02;;;;;;;44.70;16.63;;;;;;;2.94;84.65;99924.94;4845130;29;20460;-66
2021/11/13 06:49:35;;;;;;;48.45;18.10;;;;;;;3.01;84.51;99921.81;4844577;29;20049;-65
2021/11/13 06:52:12;;;;;;;47.97;16.88;;;;;;;3.04;85.05;99926.97;4844769;29;20497;-65
2021/11/13 06:54:45;;;;;;;48.92;17.98;;;;;;;3.10;85.39;99932.19;4843643;29;20137;-65
2021/11/13 06:57:19;;;;;;;41.05;16.55;;;;;;;3.09;85.40;99930.50;4844385;29;20544;-65
2021/11/13 06:59:48;;;;;;;50.47;17.13;;;;;;;3.10;85.76;99932.19;4844326;29;20520;-65
2021/11/13 07:02:20;;;;;;;48.03;16.52;;;;;;;3.07;85.32;99922.03;4844370;29;20050;-65
2021/11/13 07:04:52;;;;;;;49.80;19.42;;;;;;;3.10;85.50;99930.53;4844202;29;20061;-65
2021/11/13 07:07:22;;;;;;;47.15;16.25;;;;;;;3.05;86.11;99923.63;4844587;29;20389;-65
2021/11/13 07:09:54;;;;;;;47.08;17.02;;;;;;;3.10;85.52;99942.28;4844142;29;20049;-65
2021/11/13 07:12:29;;;;;;;45.00;16.20;;;;;;;3.14;85.59;99939.06;4844226;29;20478;-67
2021/11/13 07:14:58;;;;;;;52.10;17.00;;;;;;;3.14;85.78;99931.50;4844634;29;20054;-70
2021/11/13 07:17:28;;;;;;;45.78;16.67;;;;;;;3.24;86.44;99941.91;4843108;29;20085;-65
2021/11/13 07:19:57;;;;;;;50.38;17.58;;;;;;;3.26;86.05;99939.47;4843984;29;20071;-67
2021/11/13 07:22:29;;;;;;;49.22;16.58;;;;;;;3.16;86.48;99917.28;4843902;29;20420;-66
2021/11/13 07:25:01;;;;;;;46.30;16.75;;;;;;;3.37;86.32;99943.19;4844189;29;20050;-64
2021/11/13 07:27:35;;;;;;;47.63;16.58;;;;;;;3.36;86.22;99951.53;4843847;29;20093;-64
2021/11/13 07:30:07;;;;;;;46.92;16.17;;;;;;;3.36;86.59;99951.53;4843832;29;20224;-66
2021/11/13 07:32:39;;;;;;;41.47;16.00;;;;;;;3.41;87.16;99947.50;4844118;29;20408;-65
2021/11/13 07:35:12;;;;;;;50.03;17.23;;;;;;;3.45;86.58;99951.88;4843883;29;20054;-65
2021/11/13 07:37:44;;;;;;;46.63;17.33;;;;;;;3.50;86.58;99952.88;4844069;29;20118;-64
2021/11/13 07:40:17;;;;;;;44.55;16.77;;;;;;;3.52;86.67;99948.72;4842702;29;20046;-66
2021/11/13 07:42:51;;;;;;;48.08;17.05;;;;;;;3.47;87.24;99950.25;4843940;29;20101;-66
2021/11/13 07:45:26;;;;;;;47.72;15.20;;;;;;;3.52;87.59;99952.91;4843524;29;20118;-66
2021/11/13 07:47:56;;;;;;;43.25;15.88;;;;;;;3.54;86.72;99957.19;4842958;29;20647;-66
2021/11/13 07:50:28;;;;;;;48.47;16.48;;;;;;;3.59;86.82;99955.66;4842795;29;20050;-65
2021/11/13 07:52:58;;;;;;;51.35;17.90;;;;;;;3.53;86.92;99947.88;4843412;29;20056;-65
2021/11/13 07:55:28;;;;;;;42.13;16.40;;;;;;;3.55;87.05;99948.78;4842505;29;20145;-66
2021/11/13 07:57:59;;;;;;;;;;;;;;;3.58;87.33;99943.84;4843713;29;20045;-66
2021/11/13 08:00:28;;;;;;;43.90;16.38;;;;;;;3.65;87.20;99960.88;4842767;29;19931;-65
2021/11/13 08:02:58;;;;;;;47.80;16.13;;;;;;;3.67;87.42;99961.78;4843191;29;20066;-64
2021/11/13 08:05:30;;;;;;;30.73;12.38;;;;;;;3.49;87.13;99927.56;4843059;29;20141;-64
2021/11/13 08:07:59;;;;;;;42.92;14.40;;;;;;;3.69;87.16;99957.69;4843198;29;20057;-65
2021/11/13 08:10:35;;;;;;;51.72;16.30;;;;;;;3.66;87.18;99957.56;4843152;29;20077;-65
2021/11/13 08:13:07;;;;;;;44.33;17.88;;;;;;;3.71;87.41;99961.09;4843167;29;20057;-65
2021/11/13 08:15:39;;;;;;;50.08;17.67;;;;;;;3.70;87.33;99963.56;4842898;29;20125;-64
2021/11/13 08:18:09;;;;;;;49.55;17.48;;;;;;;3.64;86.86;99933.97;4842782;29;20038;-64
2021/11/13 08:20:40;;;;;;;46.30;16.98;;;;;;;3.80;86.99;99961.38;4843332;29;20420;-64
2021/11/13 08:23:12;;;;;;;45.78;13.80;;;;;;;3.86;86.92;99961.53;4843292;29;20054;-65
2021/11/13 08:25:43;;;;;;;41.58;15.07;;;;;;;3.90;86.74;99962.50;4843016;29;20045;-64
2021/11/13 08:28:15;;;;;;;46.10;16.27;;;;;;;3.93;87.15;99960.94;4842954;29;20114;-65
2021/11/13 08:30:48;;;;;;;47.70;17.30;;;;;;;3.92;87.03;99959.22;4843137;29;20058;-65
2021/11/13 08:33:22;;;;;;;51.78;16.65;;;;;;;3.95;86.59;99963.50;4842934;29;20149;-66
2021/11/13 08:39:29;;;;;;;33.13;14.02;;;;;;;3.94;86.88;99969.34;4824291;29;20415;-69
2021/11/13 08:41:58;;;;;;;37.00;15.20;;;;;;;4.01;86.72;99966.19;4824691;29;20050;-69
2021/11/13 08:44:29;;;;;;;38.83;14.25;;;;;;;3.94;86.68;99965.16;4824686;29;20042;-69
2021/11/13 08:47:03;;;;;;;42.45;14.70;;;;;;;3.99;87.09;99968.69;4824640;29;20103;-68
2021/11/13 08:49:36;;;;;;;37.78;13.45;;;;;;;4.00;86.41;99970.41;4824659;29;20058;-69
2021/11/13 08:52:10;;;;;;;34.67;13.70;;;;;;;4.07;86.13;99972.31;4824675;29;20065;-68
2021/11/13 08:54:43;;;;;;;41.40;13.45;;;;;;;4.10;86.24;99968.16;4824603;29;20055;-67
2021/11/13 08:57:13;;;;;;;37.42;14.80;;;;;;;4.15;86.13;99971.69;4824617;29;20050;-67
2021/11/13 08:59:45;;;;;;;37.47;13.60;;;;;;;4.25;86.50;99976.19;4824840;29;20496;-68
2021/11/13 09:02:19;;;;;;;37.15;12.05;;;;;;;4.23;86.55;99972.72;4828478;29;20137;-68
2021/11/13 09:04:52;;;;;;;30.80;13.00;;;;;;;4.19;86.29;99966.75;4828335;29;20564;-68
2021/11/13 09:07:22;;;;;;;38.90;15.10;;;;;;;4.23;86.24;99967.69;4828068;29;20134;-69
2021/11/13 09:09:54;;;;;;;38.00;15.40;;;;;;;4.30;85.92;99964.50;4827954;29;20061;-68
2021/11/13 09:12:27;;;;;;;40.25;13.38;;;;;;;4.38;86.27;99963.06;4827921;29;20054;-68
2021/11/13 09:15:03;;;;;;;34.10;12.05;;;;;;;4.43;86.34;99964.06;4826853;29;20413;-69
2021/11/13 09:17:38;;;;;;;42.78;15.05;;;;;;;4.49;86.06;99971.81;4827436;29;20410;-69
2021/11/13 09:20:11;;;;;;;30.00;12.05;;;;;;;4.56;85.92;99976.22;4827750;29;20058;-69
2021/11/13 09:22:40;;;;;;;44.85;14.52;;;;;;;4.56;85.36;99978.75;4827727;29;20155;-68
2021/11/13 09:25:12;;;;;;;38.75;14.43;;;;;;;4.64;85.61;99957.94;4827837;29;20474;-68
2021/11/13 09:27:47;;;;;;;37.22;16.10;;;;;;;4.73;85.14;99967.41;4827674;29;20058;-69
2021/11/13 09:30:25;;;;;;;36.72;14.65;;;;;;;4.75;85.09;99955.72;4826434;29;20054;-68
2021/11/13 09:32:58;;;;;;;35.40;14.52;;;;;;;4.72;84.43;99955.63;4827479;29;20134;-68
2021/11/13 09:35:31;;;;;;;39.00;13.25;;;;;;;4.76;84.66;99957.41;4827756;29;20412;-69
2021/11/13 09:38:21;;;;;;;35.42;15.05;;;;;;;4.93;84.20;99951.13;4838044;29;20126;-69
2021/11/13 09:40:55;;;;;;;38.58;14.88;;;;;;;5.11;84.16;99956.63;4830652;29;20122;-70
2021/11/13 09:43:25;;;;;;;45.45;15.43;;;;;;;5.31;84.07;99957.13;4827210;29;20054;-70
2021/11/13 09:45:57;;;;;;;43.97;16.17;;;;;;;5.56;83.80;99956.06;4827299;29;20053;-68
2021/11/13 09:48:30;;;;;;;40.03;15.20;;;;;;;5.78;83.50;99953.19;4827154;29;20501;-69
2021/11/13 09:51:00;;;;;;;39.53;16.13;;;;;;;5.95;82.91;99936.75;4827348;29;20448;-70
2021/11/13 09:53:30;;;;;;;39.05;15.38;;;;;;;5.98;82.58;99941.84;4827327;29;20127;-69
2021/11/13 09:56:03;;;;;;;27.83;11.20;;;;;;;5.91;81.88;99929.88;4827055;29;20054;-70
2021/11/13 09:58:32;;;;;;;33.85;14.10;;;;;;;6.03;81.38;99930.13;4827261;29;20433;-70
2021/11/13 10:01:06;;;;;;;30.95;12.75;;;;;;;6.24;80.66;99933.13;4827344;29;20050;-69
2021/11/13 10:03:43;;;;;;;31.42;12.55;;;;;;;6.37;80.21;99924.94;4826917;29;20074;-68
2021/11/13 10:06:16;;;;;;;29.13;13.18;;;;;;;6.34;79.34;99927.41;4826737;29;20081;-69
2021/11/13 10:08:49;;;;;;;27.55;13.05;;;;;;;6.32;79.10;99918.94;4827118;29;20058;-69
2021/11/13 10:11:21;;;;;;;31.23;12.90;;;;;;;6.54;78.54;99916.00;4826772;29;20054;-69
2021/11/13 10:13:52;;;;;;;28.95;13.27;;;;;;;6.75;77.78;99911.31;4826236;29;20082;-69
2021/11/13 10:16:32;;;;;;;30.65;13.38;;;;;;;6.77;77.90;99907.97;4826685;29;20485;-68
2021/11/13 10:19:08;;;;;;;26.10;11.77;;;;;;;6.75;77.36;99902.84;4826945;29;20050;-69
2021/11/13 10:21:39;;;;;;;29.63;13.40;;;;;;;6.62;77.02;99904.28;4826622;29;20145;-70
2021/11/13 10:24:15;;;;;;;31.98;13.25;;;;;;;6.60;77.12;99898.34;4826872;29;20062;-68
2021/11/13 10:26:46;;;;;;;25.98;11.75;;;;;;;6.50;77.13;99896.44;4826722;29;20046;-68
2021/11/13 10:29:18;;;;;;;20.63;10.55;;;;;;;6.44;76.79;99893.81;4826502;29;20103;-68
2021/11/13 10:31:51;;;;;;;21.98;8.07;;;;;;;6.40;77.19;99897.13;4826477;29;20062;-69
2021/11/13 10:34:26;;;;;;;20.33;9.27;;;;;;;6.36;77.15;99887.75;4826509;29;20141;-68
2021/11/13 10:36:58;;;;;;;20.85;9.45;;;;;;;6.31;76.68;99896.94;4826742;29;20528;-68
2021/11/13 10:39:30;;;;;;;17.58;8.05;;;;;;;6.36;76.27;99895.34;4808677;29;20144;-69
2021/11/13 10:42:01;;;;;;;20.83;9.43;;;;;;;6.54;76.58;99890.63;4808081;29;20074;-69
2021/11/13 10:44:34;;;;;;;19.77;9.23;;;;;;;6.52;76.13;99889.75;4808198;29;20521;-69
2021/11/13 10:47:11;;;;;;;17.73;8.32;;;;;;;6.52;76.01;99883.81;4808144;29;20480;-69
2021/11/13 10:49:45;;;;;;;23.17;9.80;;;;;;;6.50;76.08;99878.72;4808159;29;20119;-68
2021/11/13 10:52:15;;;;;;;22.70;9.38;;;;;;;6.35;75.60;99886.03;4808191;29;20043;-67
2021/11/13 10:54:47;;;;;;;19.27;9.05;;;;;;;6.26;75.58;99882.47;4808000;29;20047;-68
2021/11/13 10:57:26;;;;;;;25.75;9.60;;;;;;;6.16;75.64;99878.91;4808310;29;20042;-68
2021/11/13 11:00:12;;;;;;;24.13;10.48;;;;;;;6.15;75.66;99874.66;4808365;29;20107;-68
2021/11/13 11:02:44;;;;;;;20.52;9.55;;;;;;;6.09;75.74;99869.47;4808131;29;20061;-67
2021/11/13 11:05:17;;;;;;;25.33;11.65;;;;;;;6.10;76.20;99871.16;4808245;29;20051;-69
2021/11/13 11:07:46;;;;;;;25.52;10.05;;;;;;;6.00;75.76;99856.59;4807889;29;20129;-67
2021/11/13 11:10:30;;;;;;;27.23;11.23;;;;;;;6.01;76.23;99868.47;4808015;29;20100;-68
2021/11/13 11:13:03;;;;;;;31.42;12.90;;;;;;;6.08;76.37;99867.75;4807828;29;20112;-69
2021/11/13 11:15:41;;;;;;;34.15;13.63;;;;;;;6.05;76.16;99857.56;4807984;29;20058;-68
2021/11/13 11:18:12;;;;;;;31.67;12.80;;;;;;;5.98;76.58;99856.59;4808023;29;20122;-68
2021/11/13 11:20:45;;;;;;;31.52;14.18;;;;;;;6.01;76.39;99860.84;4807893;29;20474;-68
2021/11/13 11:23:17;;;;;;;35.90;15.10;;;;;;;5.94;76.63;99853.97;4807866;29;20051;-68
2021/11/13 11:25:47;;;;;;;26.15;12.48;;;;;;;5.89;76.33;99845.41;4807503;29;20047;-68
2021/11/13 11:28:19;;;;;;;32.08;12.85;;;;;;;5.83;76.83;99840.22;4807333;29;20055;-68
2021/11/13 11:30:49;;;;;;;32.25;13.27;;;;;;;5.82;77.09;99836.81;4806545;29;20137;-68
2021/11/13 11:33:38;;;;;;;31.02;13.50;;;;;;;5.85;77.36;99841.13;4807547;29;20115;-69
2021/11/13 11:36:41;;;;;;;25.07;12.27;;;;;;;5.81;76.70;99837.63;4806985;29;20082;-70
2021/11/13 11:39:11;;;;;;;25.73;12.90;;;;;;;5.81;76.98;99840.16;4824087;29;20054;-69
2021/11/13 11:41:41;;;;;;;29.33;13.32;;;;;;;5.84;77.19;99837.72;4825406;29;20081;-70
2021/11/13 11:44:11;;;;;;;31.13;12.65;;;;;;;5.78;77.24;99834.19;4825917;29;20144;-69
2021/11/13 11:46:41;;;;;;;27.50;12.98;;;;;;;5.74;77.36;99845.06;4824943;29;20516;-69
2021/11/13 11:49:14;;;;;;;34.35;13.70;;;;;;;5.77;77.54;99840.06;4825293;29;20049;-71
2021/11/13 11:51:44;;;;;;;26.65;11.60;;;;;;;5.79;77.22;99833.34;4825352;29;20050;-70
2021/11/13 11:54:17;;;;;;;32.60;12.65;;;;;;;5.76;77.60;99835.84;4825269;29;20051;-70
2021/11/13 11:56:47;;;;;;;32.92;13.38;;;;;;;5.73;77.82;99828.16;4825653;29;20046;-71
2021/11/13 11:59:16;;;;;;;27.67;12.95;;;;;;;5.77;77.92;99835.00;4825242;29;20141;-70